Time;durP1;ratioP1;P1;durP2;ratioP2;P2;SDS_P1;SDS_P2;PMS_P1;PMS_P2;Temp;Humidity;BMP_temperature;BMP_pressure;BME280_temperature;BME280_humidity;BME280_pressure;Samples;Min_cycle;Max_cycle;Signal;HPM_P1;HPM_P2
2023/07/24 00:02:26;;;;;;;6.30;5.40;;;;;;;19.35;69.62;99667.69;78708;280;3027301;-72
2023/07/24 00:05:01;;;;;;;5.70;5.10;;;;;;;19.33;69.84;99668.40;78824;280;3026706;-70
2023/07/24 00:07:37;;;;;;;9.60;6.00;;;;;;;19.32;69.73;99671.83;78871;280;3028279;-71
2023/07/24 00:10:15;;;;;;;9.30;5.80;;;;;;;19.31;69.95;99669.45;79607;280;3011586;-73
2023/07/24 00:12:50;;;;;;;7.80;5.70;;;;;;;19.30;69.99;99668.83;78839;280;3027440;-72
2023/07/24 00:15:26;;;;;;;6.90;5.30;;;;;;;19.27;70.13;99672.08;79576;280;3012783;-72
2023/07/24 00:18:01;;;;;;;8.50;5.20;;;;;;;19.27;70.32;99674.39;78827;280;3027336;-71
2023/07/24 00:20:38;;;;;;;7.10;5.50;;;;;;;19.27;70.45;99679.84;79602;280;3013080;-70
2023/07/24 00:23:14;;;;;;;7.60;5.20;;;;;;;19.27;70.41;99680.42;79572;280;3013323;-69
2023/07/24 00:25:50;;;;;;;6.40;5.40;;;;;;;19.27;70.25;99685.20;79590;280;3012642;-74
2023/07/24 00:28:27;;;;;;;8.60;6.10;;;;;;;19.28;69.47;99684.17;79545;280;3011421;-73
2023/07/24 00:31:02;;;;;;;8.90;5.40;;;;;;;19.30;68.60;99683.52;78843;280;3028369;-71
2023/07/24 00:33:38;;;;;;;6.20;5.60;;;;;;;19.33;67.91;99687.62;79607;280;3011711;-72
2023/07/24 00:36:19;;;;;;;6.70;5.70;;;;;;;19.37;67.35;99684.87;78823;280;3026960;-70
2023/07/24 00:38:55;;;;;;;8.50;6.50;;;;;;;19.39;66.72;99685.55;78856;280;3028019;-71
2023/07/24 00:41:31;;;;;;;6.40;5.70;;;;;;;19.42;66.41;99688.67;79563;280;3011587;-71
2023/07/24 00:44:07;;;;;;;6.40;5.50;;;;;;;19.44;66.11;99688.28;79586;280;3011522;-72
2023/07/24 00:46:43;;;;;;;8.20;5.60;;;;;;;19.46;65.95;99690.95;78844;280;3027073;-72
2023/07/24 00:49:19;;;;;;;6.50;5.70;;;;;;;19.50;65.58;99692.92;79590;280;3011485;-72
2023/07/24 00:51:54;;;;;;;8.50;5.60;;;;;;;19.52;65.41;99688.30;78838;280;3027278;-72
2023/07/24 00:54:31;;;;;;;11.20;6.00;;;;;;;19.55;65.02;99688.25;79601;280;3012791;-70
2023/07/24 00:57:07;;;;;;;6.90;5.80;;;;;;;19.58;64.82;99685.11;78831;280;3029019;-70
2023/07/24 00:59:43;;;;;;;8.40;5.80;;;;;;;19.60;64.63;99681.29;78872;280;3027327;-72
2023/07/24 01:02:18;;;;;;;6.10;5.40;;;;;;;19.62;64.38;99680.42;78849;280;3028092;-72
2023/07/24 01:04:54;;;;;;;5.70;5.20;;;;;;;19.63;64.33;99685.67;78879;280;3027254;-72
2023/07/24 01:07:30;;;;;;;5.90;5.30;;;;;;;19.63;64.20;99689.56;79605;280;3011514;-71
2023/07/24 01:10:07;;;;;;;5.90;5.30;;;;;;;19.63;64.07;99694.30;79493;280;3011438;-69
2023/07/24 01:12:53;;;;;;;7.40;5.60;;;;;;;19.62;64.19;99694.42;78852;280;3027409;-72
2023/07/24 01:15:31;;;;;;;7.90;5.30;;;;;;;19.61;63.93;99690.05;78871;280;3027078;-72
2023/07/24 01:18:09;;;;;;;5.80;5.20;;;;;;;19.63;63.78;99692.61;78820;280;3027955;-72
2023/07/24 01:20:49;;;;;;;6.90;5.60;;;;;;;19.64;63.58;99697.61;78823;280;3027623;-72
2023/07/24 01:23:43;;;;;;;6.10;5.10;;;;;;;19.65;63.59;99696.63;78857;280;3027146;-69
2023/07/24 01:26:18;;;;;;;7.00;5.70;;;;;;;19.65;63.36;99698.54;78765;293;3027337;-73
2023/07/24 01:28:54;;;;;;;6.20;5.50;;;;;;;19.66;63.40;99699.94;79431;282;3011563;-72
2023/07/24 01:31:30;;;;;;;8.40;5.40;;;;;;;19.65;63.24;99700.21;79491;280;3013408;-72
2023/07/24 01:34:06;;;;;;;6.20;5.00;;;;;;;19.63;63.34;99700.73;79496;280;3012586;-72
2023/07/24 01:36:42;;;;;;;7.20;5.50;;;;;;;19.59;63.16;99698.51;79534;280;3012918;-70
2023/07/24 01:39:19;;;;;;;6.70;5.20;;;;;;;19.57;63.23;99696.17;79533;280;3011516;-72
2023/07/24 01:41:55;;;;;;;7.80;5.50;;;;;;;19.56;63.10;99696.84;79502;280;3011579;-73
2023/07/24 01:44:31;;;;;;;7.70;5.00;;;;;;;19.56;63.07;99693.42;79512;280;3011441;-73
2023/07/24 01:47:08;;;;;;;6.60;5.10;;;;;;;19.57;63.25;99690.06;79469;280;3013506;-73
2023/07/24 01:49:43;;;;;;;6.30;5.20;;;;;;;19.55;63.09;99689.60;78782;280;3028558;-73
2023/07/24 01:52:20;;;;;;;5.90;5.30;;;;;;;19.56;63.08;99686.56;79516;280;3011340;-73
2023/07/24 01:54:55;;;;;;;8.60;5.90;;;;;;;19.54;63.13;99687.75;78795;280;3027753;-70
2023/07/24 01:57:31;;;;;;;5.60;5.00;;;;;;;19.54;62.93;99681.10;78769;280;3027371;-70
2023/07/24 02:00:08;;;;;;;5.80;4.60;;;;;;;19.52;62.91;99678.61;78785;280;3027117;-73
2023/07/24 02:02:43;;;;;;;5.80;5.20;;;;;;;19.50;62.90;99678.27;78833;280;3027295;-73
2023/07/24 02:05:20;;;;;;;5.80;5.10;;;;;;;19.48;62.95;99671.50;79555;280;3012825;-71
2023/07/24 02:07:56;;;;;;;6.60;4.90;;;;;;;19.48;62.78;99674.17;79490;280;3011497;-71
2023/07/24 02:10:32;;;;;;;6.30;5.00;;;;;;;19.49;62.85;99676.61;79528;280;3013495;-72
2023/07/24 02:13:09;;;;;;;5.30;4.80;;;;;;;19.49;62.86;99676.02;79543;280;3011355;-71
2023/07/24 02:15:44;;;;;;;5.70;5.20;;;;;;;19.49;62.80;99670.71;78764;280;3028714;-73
2023/07/24 02:18:20;;;;;;;6.10;4.60;;;;;;;19.47;62.69;99669.11;79470;280;3011467;-71
2023/07/24 02:20:56;;;;;;;5.70;4.60;;;;;;;19.44;62.65;99666.52;79562;280;3013248;-72
2023/07/24 02:23:33;;;;;;;7.00;4.50;;;;;;;19.41;62.64;99668.27;79531;280;3011588;-72
2023/07/24 02:26:09;;;;;;;6.00;4.50;;;;;;;19.35;62.58;99671.02;79587;280;3011500;-72
2023/07/24 02:28:45;;;;;;;6.10;5.20;;;;;;;19.29;62.53;99672.05;79568;280;3011573;-71
2023/07/24 02:31:21;;;;;;;8.00;5.10;;;;;;;19.22;62.43;99673.73;79615;280;3012879;-72
2023/07/24 02:33:57;;;;;;;5.90;4.50;;;;;;;19.15;62.68;99672.04;79564;280;3011443;-72
2023/07/24 02:36:33;;;;;;;6.00;4.60;;;;;;;19.09;62.73;99668.31;78761;280;3029250;-72
2023/07/24 02:39:09;;;;;;;5.80;4.30;;;;;;;19.05;62.65;99666.72;79480;281;3011490;-70
2023/07/24 02:41:45;;;;;;;5.20;4.10;;;;;;;19.02;62.41;99670.28;79474;281;3011560;-70
2023/07/24 02:44:21;;;;;;;4.60;4.20;;;;;;;19.02;62.10;99674.93;79496;281;3011572;-72
2023/07/24 02:46:57;;;;;;;5.20;4.20;;;;;;;19.00;61.95;99678.92;79457;281;3011517;-70
2023/07/24 02:49:33;;;;;;;5.20;4.20;;;;;;;19.00;61.68;99677.04;79488;281;3011506;-71
2023/07/24 02:52:10;;;;;;;5.10;3.90;;;;;;;19.00;61.46;99679.54;79441;281;3011599;-72
2023/07/24 02:54:45;;;;;;;5.60;3.50;;;;;;;19.00;61.19;99681.60;78718;273;3028209;-72
2023/07/24 02:57:22;;;;;;;4.50;3.80;;;;;;;19.01;61.13;99679.55;79402;281;3012732;-73
2023/07/24 02:59:58;;;;;;;3.70;3.30;;;;;;;19.03;61.06;99686.84;79434;281;3013217;-72
2023/07/24 03:02:34;;;;;;;4.20;3.30;;;;;;;19.04;60.93;99683.74;79420;281;3011424;-73
2023/07/24 03:05:11;;;;;;;4.60;4.20;;;;;;;19.06;60.60;99691.16;79354;281;3012806;-71
2023/07/24 03:07:46;;;;;;;9.30;4.40;;;;;;;19.08;60.60;99690.50;78695;281;3028882;-72
2023/07/24 03:10:22;;;;;;;5.00;3.80;;;;;;;19.11;60.47;99690.05;79465;281;3011455;-72
2023/07/24 03:12:58;;;;;;;4.50;3.60;;;;;;;19.15;60.46;99692.25;79487;281;3012865;-72
2023/07/24 03:15:35;;;;;;;6.00;4.10;;;;;;;19.18;60.51;99694.81;79484;273;3011589;-70
2023/07/24 03:18:10;;;;;;;4.00;3.60;;;;;;;19.20;60.37;99694.41;78726;281;3027582;-71
2023/07/24 03:20:46;;;;;;;4.40;4.00;;;;;;;19.21;60.52;99690.06;79513;281;3011505;-69
2023/07/24 03:23:22;;;;;;;4.50;3.90;;;;;;;19.22;60.49;99697.98;78788;281;3027739;-71
2023/07/24 03:25:59;;;;;;;5.50;3.90;;;;;;;19.22;60.52;99695.51;78747;280;3026983;-73
2023/07/24 03:28:35;;;;;;;5.80;4.00;;;;;;;19.22;60.56;99697.27;79545;280;3011484;-71
2023/07/24 03:31:11;;;;;;;5.40;4.20;;;;;;;19.22;60.67;99703.29;79519;280;3011554;-72
2023/07/24 03:33:47;;;;;;;6.00;3.80;;;;;;;19.23;60.50;99708.50;79551;280;3011744;-72
2023/07/24 03:36:24;;;;;;;6.20;3.90;;;;;;;19.25;60.63;99703.52;79485;280;3011477;-72
2023/07/24 03:38:59;;;;;;;5.40;3.90;;;;;;;19.28;61.06;99705.39;78776;280;3026773;-72
2023/07/24 03:41:35;;;;;;;6.00;4.10;;;;;;;19.32;61.14;99710.57;79500;273;3011251;-72
2023/07/24 03:44:11;;;;;;;4.90;4.10;;;;;;;19.35;61.31;99711.02;79543;280;3011436;-71
2023/07/24 03:46:47;;;;;;;5.40;4.20;;;;;;;19.38;61.22;99709.15;79485;273;3011401;-70
2023/07/24 03:49:24;;;;;;;4.90;4.10;;;;;;;19.43;61.44;99708.23;78753;280;3027152;-71
2023/07/24 03:51:58;;;;;;;5.00;3.90;;;;;;;19.45;61.32;99709.45;78701;281;3027438;-70
2023/07/24 03:54:35;;;;;;;6.60;3.70;;;;;;;19.49;61.33;99710.02;79540;284;3011586;-71
2023/07/24 03:57:11;;;;;;;7.40;4.00;;;;;;;19.53;61.41;99707.72;79495;280;3011299;-70
2023/07/24 03:59:46;;;;;;;5.20;4.10;;;;;;;19.61;61.51;99709.49;78804;281;3027713;-70
2023/07/24 04:02:24;;;;;;;4.60;4.10;;;;;;;19.83;61.75;99707.64;79517;297;3011590;-71
2023/07/24 04:04:59;;;;;;;5.40;3.80;;;;;;;20.01;61.10;99712.27;78756;280;3028729;-71
2023/07/24 04:07:37;;;;;;;5.10;4.00;;;;;;;20.05;60.44;99713.30;79510;280;3012009;-71
2023/07/24 04:10:13;;;;;;;5.70;4.20;;;;;;;20.04;60.28;99711.21;78839;280;3027094;-71
2023/07/24 04:12:48;;;;;;;4.30;3.40;;;;;;;20.05;60.12;99711.68;78809;280;3027176;-70
2023/07/24 04:15:24;;;;;;;5.00;3.60;;;;;;;20.05;59.72;99706.95;79544;280;3011506;-71
2023/07/24 04:18:00;;;;;;;4.80;3.50;;;;;;;20.05;59.72;99705.71;79547;280;3013179;-70
2023/07/24 04:20:36;;;;;;;4.20;3.30;;;;;;;20.05;59.65;99705.10;79538;280;3011350;-72
2023/07/24 04:23:15;;;;;;;6.10;3.30;;;;;;;20.10;59.68;99710.35;79456;282;3012554;-72
2023/07/24 04:25:51;;;;;;;5.70;3.50;;;;;;;20.18;59.75;99711.09;78800;280;3028031;-72
2023/07/24 04:28:30;;;;;;;6.00;3.60;;;;;;;20.25;60.12;99714.52;78754;280;3027305;-72
2023/07/24 04:31:05;;;;;;;5.30;3.70;;;;;;;20.33;59.50;99716.85;78768;280;3026796;-70
2023/07/24 04:33:40;;;;;;;5.80;3.80;;;;;;;20.38;58.92;99709.69;78803;280;3027374;-71
2023/07/24 04:36:17;;;;;;;7.80;3.60;;;;;;;20.46;59.23;99712.36;79517;280;3011518;-72
2023/07/24 04:38:52;;;;;;;4.80;3.20;;;;;;;20.50;59.23;99712.33;78789;280;3026865;-71
2023/07/24 04:41:28;;;;;;;4.80;3.90;;;;;;;20.55;58.61;99713.84;79505;280;3011541;-71
2023/07/24 04:44:04;;;;;;;4.70;3.40;;;;;;;20.57;58.52;99712.56;79513;280;3013211;-72
2023/07/24 04:46:41;;;;;;;4.10;3.60;;;;;;;20.59;58.89;99711.54;79539;280;3011437;-74
2023/07/24 04:49:16;;;;;;;6.20;3.40;;;;;;;20.62;58.73;99705.41;78776;280;3027869;-71
2023/07/24 04:51:52;;;;;;;5.20;3.90;;;;;;;20.70;58.84;99704.48;79556;273;3011551;-70
2023/07/24 04:54:29;;;;;;;8.60;3.60;;;;;;;20.83;59.13;99709.65;79562;280;3011352;-71
2023/07/24 04:57:05;;;;;;;5.40;3.60;;;;;;;20.97;58.90;99706.12;78792;280;3027842;-72
2023/07/24 04:59:40;;;;;;;4.80;3.70;;;;;;;21.10;58.82;99707.05;78806;280;3026793;-72
2023/07/24 05:02:16;;;;;;;5.60;3.80;;;;;;;21.27;58.62;99708.47;78810;280;3027045;-72
2023/07/24 05:04:52;;;;;;;5.40;3.50;;;;;;;21.61;58.65;99711.52;79491;273;3011361;-72
2023/07/24 05:07:28;;;;;;;6.40;3.40;;;;;;;21.91;57.79;99713.33;79501;280;3011537;-70
2023/07/24 05:10:04;;;;;;;5.60;3.40;;;;;;;22.08;57.18;99712.35;79521;280;3013130;-71
2023/07/24 05:12:41;;;;;;;4.30;3.20;;;;;;;22.32;56.78;99714.16;78801;273;3027907;-70
2023/07/24 05:15:18;;;;;;;5.90;3.70;;;;;;;22.45;55.87;99705.11;78777;280;3028388;-72
2023/07/24 05:17:54;;;;;;;4.80;3.50;;;;;;;22.42;55.48;99702.52;79216;280;3011587;-71
2023/07/24 05:20:35;;;;;;;5.80;3.40;;;;;;;22.33;55.05;99702.63;78857;280;3027154;-72
2023/07/24 05:23:11;;;;;;;4.20;3.20;;;;;;;22.22;54.70;99706.55;78702;280;3027775;-71
2023/07/24 05:25:47;;;;;;;5.20;3.30;;;;;;;22.12;54.67;99709.28;79506;273;3011528;-71
2023/07/24 05:28:27;;;;;;;4.30;3.70;;;;;;;22.02;54.94;99705.86;79576;280;3012861;-71
2023/07/24 05:31:05;;;;;;;5.70;3.70;;;;;;;21.93;55.44;99703.46;78852;280;3027722;-70
2023/07/24 05:33:41;;;;;;;4.40;3.30;;;;;;;21.86;55.53;99704.84;78810;280;3028250;-71
2023/07/24 05:36:17;;;;;;;4.90;2.90;;;;;;;21.83;55.92;99705.67;79577;280;3011548;-71
2023/07/24 05:38:54;;;;;;;3.70;3.30;;;;;;;21.79;55.64;99701.65;78865;280;3028261;-72
2023/07/24 05:41:29;;;;;;;3.50;3.20;;;;;;;21.77;55.61;99711.28;78842;280;3027517;-72
2023/07/24 05:44:05;;;;;;;4.90;3.40;;;;;;;21.74;55.50;99714.73;78826;280;3027534;-71
2023/07/24 05:46:41;;;;;;;4.20;3.00;;;;;;;21.71;55.94;99716.67;78831;273;3026703;-72
2023/07/24 05:49:17;;;;;;;5.50;3.40;;;;;;;21.69;55.66;99721.75;78877;280;3028444;-72
2023/07/24 05:51:53;;;;;;;4.50;3.20;;;;;;;21.68;55.61;99722.73;78796;279;3026560;-70
2023/07/24 05:54:31;;;;;;;5.20;3.40;;;;;;;21.69;56.13;99728.73;78833;280;3026702;-72
2023/07/24 05:57:10;;;;;;;4.40;3.20;;;;;;;21.70;56.04;99735.94;78843;280;3028031;-72
2023/07/24 05:59:45;;;;;;;3.80;3.20;;;;;;;21.71;56.05;99734.39;78855;280;3027314;-72
2023/07/24 06:02:21;;;;;;;3.60;3.30;;;;;;;21.73;55.56;99735.60;78852;280;3028274;-72
2023/07/24 06:04:56;;;;;;;3.90;3.20;;;;;;;21.78;55.78;99738.19;78829;280;3026764;-71
2023/07/24 06:07:32;;;;;;;4.30;3.80;;;;;;;21.78;55.32;99735.46;78813;280;3027429;-70
2023/07/24 06:10:09;;;;;;;4.30;3.30;;;;;;;21.73;55.11;99730.59;78832;280;3027670;-70
2023/07/24 06:12:44;;;;;;;4.10;3.10;;;;;;;21.68;55.30;99735.18;78822;280;3027900;-70
2023/07/24 06:15:20;;;;;;;3.60;3.20;;;;;;;21.63;55.23;99734.25;78817;280;3027372;-70
2023/07/24 06:17:55;;;;;;;4.10;3.30;;;;;;;21.60;55.14;99737.54;78805;280;3027990;-72
2023/07/24 06:20:31;;;;;;;5.40;3.20;;;;;;;21.60;55.17;99737.73;78874;280;3027431;-72
2023/07/24 06:23:08;;;;;;;5.60;3.30;;;;;;;21.63;55.20;99730.16;78827;280;3028340;-72
2023/07/24 06:25:43;;;;;;;5.60;4.00;;;;;;;21.66;55.37;99727.95;78692;280;3027826;-73
2023/07/24 06:28:21;;;;;;;4.30;3.10;;;;;;;21.70;55.93;99727.68;79552;280;3011569;-72
2023/07/24 06:31:00;;;;;;;4.30;3.50;;;;;;;21.78;56.44;99725.73;78785;280;3027497;-72
2023/07/24 06:33:36;;;;;;;4.40;3.00;;;;;;;21.85;56.79;99720.73;78772;280;3026979;-72
2023/07/24 06:36:14;;;;;;;4.40;3.80;;;;;;;21.92;56.99;99726.30;78758;280;3027019;-72
2023/07/24 06:38:50;;;;;;;4.10;3.10;;;;;;;22.00;57.22;99723.05;78823;280;3027549;-72
2023/07/24 06:41:25;;;;;;;8.30;3.30;;;;;;;22.10;57.05;99725.86;78682;280;3028618;-72
2023/07/24 06:44:01;;;;;;;5.90;3.70;;;;;;;22.17;56.77;99725.91;78816;280;3028098;-73
2023/07/24 06:46:36;;;;;;;4.50;3.30;;;;;;;22.24;56.92;99737.17;78766;280;3026965;-71
2023/07/24 06:49:12;;;;;;;4.60;3.20;;;;;;;22.25;56.59;99741.98;78760;269;3028190;-70
2023/07/24 06:51:47;;;;;;;4.10;3.30;;;;;;;22.25;56.55;99740.05;78795;280;3027264;-71
2023/07/24 06:54:23;;;;;;;7.20;3.20;;;;;;;22.26;56.41;99739.45;79552;273;3011416;-73
2023/07/24 06:56:59;;;;;;;4.60;3.20;;;;;;;22.28;56.21;99730.70;79492;280;3013501;-72
2023/07/24 06:59:36;;;;;;;4.90;3.10;;;;;;;22.31;56.03;99724.48;79529;280;3011461;-71
2023/07/24 07:02:12;;;;;;;4.40;3.30;;;;;;;22.44;57.06;99726.82;79434;274;3012953;-71
2023/07/24 07:04:48;;;;;;;3.40;3.00;;;;;;;22.63;56.95;99723.87;79515;269;3011490;-71
2023/07/24 07:07:24;;;;;;;3.40;3.00;;;;;;;22.87;56.40;99729.19;79541;280;3012673;-69
2023/07/24 07:10:00;;;;;;;4.60;3.10;;;;;;;23.14;56.36;99726.46;78777;280;3027881;-70
2023/07/24 07:12:36;;;;;;;5.20;3.20;;;;;;;23.39;55.09;99719.63;79511;273;3011418;-71
2023/07/24 07:15:13;;;;;;;4.30;3.20;;;;;;;23.60;54.59;99717.12;79509;280;3011580;-73
2023/07/24 07:17:49;;;;;;;3.20;2.50;;;;;;;23.91;54.52;99709.16;78791;280;3027217;-72
2023/07/24 07:20:25;;;;;;;5.00;2.90;;;;;;;24.21;53.53;99708.27;79497;280;3011594;-72
2023/07/24 07:23:03;;;;;;;3.40;2.80;;;;;;;24.49;53.05;99708.02;79531;280;3011452;-73
2023/07/24 07:25:41;;;;;;;4.90;3.20;;;;;;;24.79;52.68;99711.71;78765;280;3031074;-71
2023/07/24 07:28:16;;;;;;;3.70;2.90;;;;;;;25.05;50.85;99706.42;78782;280;3027859;-72
2023/07/24 07:30:51;;;;;;;3.70;2.90;;;;;;;25.22;50.32;99710.98;78773;280;3026801;-72
2023/07/24 07:33:29;;;;;;;4.00;2.80;;;;;;;25.38;49.76;99710.52;79553;280;3011248;-73
2023/07/24 07:36:05;;;;;;;3.70;3.10;;;;;;;25.43;49.48;99712.25;78775;279;3026847;-74
2023/07/24 07:38:41;;;;;;;3.60;3.10;;;;;;;25.39;49.29;99709.70;78794;280;3028565;-73
2023/07/24 07:41:17;;;;;;;3.30;2.90;;;;;;;25.35;48.53;99707.28;79516;280;3011654;-72
2023/07/24 07:43:53;;;;;;;4.10;2.80;;;;;;;25.30;48.50;99709.30;79553;280;3011543;-73
2023/07/24 07:46:29;;;;;;;6.00;2.60;;;;;;;25.23;48.32;99702.73;79536;280;3011490;-72
2023/07/24 07:49:05;;;;;;;4.40;2.90;;;;;;;25.16;48.75;99713.60;79540;280;3011496;-72
2023/07/24 07:51:41;;;;;;;3.10;2.50;;;;;;;25.15;48.31;99713.36;78782;280;3027662;-73
2023/07/24 07:54:17;;;;;;;5.00;2.90;;;;;;;25.18;48.48;99712.30;79555;280;3011542;-73
2023/07/24 07:56:54;;;;;;;3.70;2.60;;;;;;;25.23;48.69;99712.40;79538;280;3013106;-72
2023/07/24 07:59:29;;;;;;;3.40;2.50;;;;;;;25.28;48.20;99713.40;78849;280;3027324;-72
2023/07/24 08:02:05;;;;;;;4.60;2.70;;;;;;;25.32;47.68;99713.29;79502;280;3011522;-73
2023/07/24 08:04:41;;;;;;;4.60;2.50;;;;;;;25.34;47.78;99713.58;79528;269;3011592;-74
2023/07/24 08:07:18;;;;;;;3.20;2.50;;;;;;;25.29;47.07;99712.41;79533;280;3011564;-73
2023/07/24 08:09:54;;;;;;;4.20;2.60;;;;;;;25.20;46.72;99712.83;79499;280;3011549;-72
2023/07/24 08:12:30;;;;;;;3.50;2.60;;;;;;;25.12;46.87;99715.00;79524;280;3012838;-73
2023/07/24 08:15:07;;;;;;;3.70;2.60;;;;;;;25.06;47.15;99709.97;79489;280;3011654;-71
2023/07/24 08:17:42;;;;;;;3.20;2.90;;;;;;;25.00;47.30;99714.83;78741;280;3027120;-72
2023/07/24 08:20:19;;;;;;;4.30;2.80;;;;;;;24.98;47.71;99714.84;79531;280;3011531;-71
2023/07/24 08:22:55;;;;;;;3.90;2.60;;;;;;;24.97;47.22;99713.37;79490;280;3011840;-72
2023/07/24 08:25:30;;;;;;;3.00;2.80;;;;;;;24.96;47.61;99713.25;78756;280;3027275;-71
2023/07/24 08:28:07;;;;;;;3.50;2.50;;;;;;;25.03;47.98;99715.11;79483;280;3011449;-70
2023/07/24 08:30:42;;;;;;;4.10;2.70;;;;;;;25.15;48.21;99713.59;78783;280;3029034;-72
2023/07/24 08:33:18;;;;;;;4.40;2.60;;;;;;;25.29;48.10;99706.18;79430;280;3011495;-72
2023/07/24 08:36:02;;;;;;;3.40;3.00;;;;;;;25.46;48.38;99703.89;78795;280;3029130;-71
2023/07/24 08:38:37;;;;;;;6.40;2.80;;;;;;;25.75;48.45;99697.80;78789;280;3027366;-72
2023/07/24 08:41:14;;;;;;;3.50;2.80;;;;;;;26.10;47.63;99695.98;78762;280;3028427;-72
2023/07/24 08:43:51;;;;;;;4.00;2.80;;;;;;;26.37;46.68;99694.55;78788;280;3027019;-73
2023/07/24 08:46:26;;;;;;;4.00;2.60;;;;;;;26.57;45.77;99694.44;78763;280;3026753;-71
2023/07/24 08:49:03;;;;;;;5.90;2.60;;;;;;;26.67;45.25;99699.79;79510;280;3011573;-72
2023/07/24 08:51:39;;;;;;;3.60;2.80;;;;;;;26.72;45.06;99697.03;79537;280;3011440;-71
2023/07/24 08:54:16;;;;;;;4.30;2.30;;;;;;;26.70;44.26;99698.94;79554;280;3011517;-72
2023/07/24 08:56:51;;;;;;;3.20;2.80;;;;;;;26.59;43.96;99692.13;78785;280;3028576;-71
2023/07/24 08:59:28;;;;;;;4.50;2.80;;;;;;;26.50;44.12;99694.15;78833;280;3027415;-72
2023/07/24 09:02:03;;;;;;;5.70;2.80;;;;;;;26.46;44.66;99695.06;78815;280;3026999;-71
2023/07/24 09:04:40;;;;;;;6.80;3.10;;;;;;;26.52;45.31;99691.52;79543;280;3012915;-72
2023/07/24 09:07:19;;;;;;;3.20;2.70;;;;;;;26.68;45.42;99687.84;78839;280;3028186;-73
2023/07/24 09:09:54;;;;;;;3.70;2.70;;;;;;;27.00;45.36;99682.60;78765;280;3028408;-73
2023/07/24 09:12:30;;;;;;;4.10;2.70;;;;;;;27.37;44.31;99675.63;78806;280;3026869;-73
2023/07/24 09:15:09;;;;;;;6.30;2.90;;;;;;;27.68;43.61;99669.96;78759;280;3026779;-70
2023/07/24 09:17:54;;;;;;;4.00;2.80;;;;;;;28.11;43.40;99661.30;78812;280;3026933;-72
2023/07/24 09:20:38;;;;;;;3.10;2.70;;;;;;;28.52;42.37;99659.88;78827;280;3027030;-72
2023/07/24 09:23:15;;;;;;;4.10;2.60;;;;;;;28.84;41.88;99665.09;78870;280;3027491;-71
2023/07/24 09:25:52;;;;;;;4.80;2.60;;;;;;;29.29;41.46;99662.60;78819;280;3026658;-71
2023/07/24 09:28:30;;;;;;;2.80;2.40;;;;;;;29.57;40.18;99652.77;78839;280;3026595;-72
2023/07/24 09:31:08;;;;;;;4.30;2.50;;;;;;;29.62;40.41;99653.89;78781;280;3027359;-73
2023/07/24 09:33:44;;;;;;;4.20;2.60;;;;;;;29.69;40.62;99656.52;78819;280;3026956;-73
2023/07/24 09:36:21;;;;;;;5.00;2.30;;;;;;;29.76;39.85;99655.86;78810;280;3027567;-72
2023/07/24 09:39:06;;;;;;;2.90;2.40;;;;;;;29.71;39.35;99659.11;78817;280;3027683;-73
2023/07/24 09:41:41;;;;;;;2.80;2.30;;;;;;;29.60;39.67;99659.80;78720;282;3028302;-73
2023/07/24 09:44:20;;;;;;;3.10;2.50;;;;;;;29.56;40.08;99655.96;78692;274;3027642;-73
2023/07/24 09:46:55;;;;;;;2.30;2.10;;;;;;;29.55;39.29;99648.02;78819;280;3027009;-72
2023/07/24 09:49:33;;;;;;;2.60;2.10;;;;;;;29.52;39.32;99640.29;78832;280;3027342;-73
2023/07/24 09:52:10;;;;;;;9.20;2.70;;;;;;;29.52;39.37;99631.40;78792;280;3027995;-72
2023/07/24 09:54:52;;;;;;;2.50;2.30;;;;;;;29.59;39.08;99619.67;78829;280;3027241;-72
2023/07/24 09:57:27;;;;;;;4.40;2.20;;;;;;;29.71;38.69;99622.77;78858;280;3027634;-73
2023/07/24 10:00:04;;;;;;;3.30;2.70;;;;;;;29.91;38.69;99620.13;79572;280;3011513;-72
2023/07/24 10:02:40;;;;;;;2.90;2.10;;;;;;;30.03;38.46;99617.63;78839;280;3027382;-73
2023/07/24 10:05:16;;;;;;;2.80;2.10;;;;;;;30.33;38.21;99614.86;79596;280;3013444;-72
2023/07/24 10:07:52;;;;;;;2.40;2.10;;;;;;;30.46;37.62;99613.48;79571;273;3013552;-72
2023/07/24 10:10:29;;;;;;;2.70;2.30;;;;;;;30.37;37.21;99605.90;78761;280;3027080;-72
2023/07/24 10:13:04;;;;;;;3.60;2.00;;;;;;;30.28;37.77;99598.30;78835;280;3029986;-73
2023/07/24 10:15:40;;;;;;;2.60;1.90;;;;;;;30.23;36.88;99592.84;79633;280;3011448;-72
2023/07/24 10:18:17;;;;;;;4.80;2.60;;;;;;;30.13;36.88;99595.14;78716;280;3027120;-73
2023/07/24 10:21:02;;;;;;;2.10;1.90;;;;;;;29.99;37.44;99600.14;78771;273;3027782;-73
2023/07/24 10:23:41;;;;;;;3.00;2.40;;;;;;;29.83;37.40;99590.09;78794;280;3027433;-74
2023/07/24 10:26:24;;;;;;;3.30;2.00;;;;;;;29.77;37.79;99586.28;78774;280;3027224;-73
2023/07/24 10:29:01;;;;;;;2.40;2.10;;;;;;;29.82;37.97;99587.67;78812;280;3027735;-70
2023/07/24 10:31:36;;;;;;;3.30;2.50;;;;;;;29.91;37.95;99588.42;78741;280;3027355;-70
2023/07/24 10:34:16;;;;;;;2.90;2.50;;;;;;;29.94;37.50;99584.86;79537;280;3011282;-71
2023/07/24 10:37:05;;;;;;;3.60;2.60;;;;;;;29.83;37.17;99579.22;78772;280;3027993;-71
2023/07/24 10:39:58;;;;;;;2.90;2.40;;;;;;;29.78;37.50;99579.40;78823;280;3027891;-72
2023/07/24 10:42:35;;;;;;;2.50;2.30;;;;;;;29.77;37.67;99571.27;78884;280;3027906;-70
2023/07/24 10:45:15;;;;;;;3.90;2.40;;;;;;;29.74;37.61;99562.64;78829;280;3026977;-70
2023/07/24 10:47:57;;;;;;;2.30;2.10;;;;;;;29.74;37.34;99564.02;78862;280;3027254;-71
2023/07/24 10:50:44;;;;;;;2.60;2.30;;;;;;;29.74;37.03;99560.18;78853;280;3027944;-73
2023/07/24 10:53:22;;;;;;;2.60;2.40;;;;;;;29.62;36.30;99552.37;78792;280;3026589;-72
2023/07/24 10:56:03;;;;;;;4.20;2.50;;;;;;;29.55;36.62;99541.23;78818;280;3028032;-70
2023/07/24 10:58:38;;;;;;;2.90;2.40;;;;;;;29.50;36.84;99541.39;78764;280;3027595;-70
2023/07/24 11:01:16;;;;;;;4.30;2.30;;;;;;;29.42;37.03;99540.86;78817;280;3027525;-70
2023/07/24 11:03:52;;;;;;;3.60;2.70;;;;;;;29.38;37.20;99538.02;78779;280;3027381;-72
2023/07/24 11:06:29;;;;;;;5.00;2.70;;;;;;;29.37;37.12;99540.70;78808;280;3027494;-72
2023/07/24 11:09:04;;;;;;;6.00;2.50;;;;;;;29.44;37.51;99539.22;78753;280;3028949;-72
2023/07/24 11:11:40;;;;;;;5.80;2.40;;;;;;;29.53;37.47;99537.39;78761;321;3029235;-71
2023/07/24 11:14:18;;;;;;;5.90;2.90;;;;;;;29.64;37.73;99530.70;79486;280;3011525;-70
2023/07/24 11:16:54;;;;;;;5.10;2.80;;;;;;;29.67;37.23;99522.86;78719;280;3028833;-70
2023/07/24 11:19:30;;;;;;;4.30;2.60;;;;;;;29.58;37.10;99523.44;78771;280;3028078;-71
2023/07/24 11:22:07;;;;;;;3.80;2.50;;;;;;;29.51;37.08;99520.54;78625;282;3026746;-70
2023/07/24 11:24:50;;;;;;;2.70;2.40;;;;;;;29.45;36.97;99520.23;78782;280;3027580;-70
2023/07/24 11:27:27;;;;;;;4.10;2.60;;;;;;;29.45;37.30;99521.09;78797;280;3027544;-70
2023/07/24 11:30:03;;;;;;;4.10;2.90;;;;;;;29.64;37.91;99510.40;78735;280;3027742;-69
2023/07/24 11:32:42;;;;;;;3.40;2.70;;;;;;;29.89;37.08;99512.63;78773;280;3028301;-69
2023/07/24 11:35:18;;;;;;;3.10;2.80;;;;;;;30.06;36.42;99507.69;78806;280;3027195;-71
2023/07/24 11:37:53;;;;;;;3.10;2.80;;;;;;;30.20;35.75;99508.10;78781;280;3028328;-72
2023/07/24 11:40:38;;;;;;;4.80;3.00;;;;;;;30.26;34.95;99506.86;79547;280;3011571;-71
2023/07/24 11:43:22;;;;;;;3.20;2.60;;;;;;;30.32;34.81;99504.33;78805;280;3027149;-71
2023/07/24 11:45:58;;;;;;;4.00;2.90;;;;;;;30.40;34.82;99502.38;78779;280;3027019;-71
2023/07/24 11:48:34;;;;;;;4.50;3.00;;;;;;;30.43;34.14;99495.39;78780;280;3027660;-71
2023/07/24 11:51:10;;;;;;;4.00;2.80;;;;;;;30.39;33.85;99490.63;79514;269;3011545;-71
2023/07/24 11:53:47;;;;;;;6.30;3.20;;;;;;;30.33;34.12;99494.83;78741;280;3027714;-71
2023/07/24 11:56:26;;;;;;;4.60;3.00;;;;;;;30.16;33.67;99498.01;78739;280;3027064;-70
2023/07/24 11:59:11;;;;;;;3.20;2.90;;;;;;;29.90;33.92;99493.63;78799;280;3028016;-70
2023/07/24 12:01:51;;;;;;;3.70;3.10;;;;;;;29.68;34.41;99484.83;78751;280;3028244;-70
2023/07/24 12:04:27;;;;;;;3.40;3.00;;;;;;;29.68;34.84;99482.21;78762;280;3027648;-71
2023/07/24 12:07:02;;;;;;;3.00;2.80;;;;;;;29.71;35.05;99479.81;78750;280;3026923;-69
2023/07/24 12:09:38;;;;;;;6.20;3.30;;;;;;;29.74;35.15;99479.78;78758;280;3028600;-70